Terminal Aerodrome Forecast
Issued by NWS Sioux Falls, SD

Home | Current Version | Previous Version | Text Only | Print | Product List | Glossary On
Versions: 1 2 3 4 5 6 7 8 9 10 11 12 13 14 15 16 17 18 19
000
FTUS43 KFSD 242322
TAFHON
TAF
KHON 242322Z 2500/2524 18006KT P6SM SCT120
      TEMPO 2500/2502 OVC007
     FM251000 VRB04KT 3SM BR BKN025
     FM251300 04008KT 2SM BR OVC012
     FM251700 01013KT P6SM OVC015
     FM252200 36015KT 2SM -SN OVC007=

USA.gov is the U.S. government's official web portal to all federal, state and local government web resources and services.